sensor_id;sensor_type;location;lat;lon;timestamp;P1;durP1;ratioP1;P2;durP2;ratioP2
21848;SDS011;11089;49.852;19.700;2023-04-25T00:01:30;11.98;;;7.30;;
21848;SDS011;11089;49.852;19.700;2023-04-25T00:04:33;12.13;;;7.57;;
21848;SDS011;11089;49.852;19.700;2023-04-25T00:07:34;12.02;;;6.82;;
21848;SDS011;11089;49.852;19.700;2023-04-25T00:10:36;13.27;;;7.10;;
21848;SDS011;11089;49.852;19.700;2023-04-25T00:13:36;9.10;;;6.05;;
21848;SDS011;11089;49.852;19.700;2023-04-25T00:16:37;9.68;;;5.85;;
21848;SDS011;11089;49.852;19.700;2023-04-25T00:19:39;9.95;;;6.25;;
21848;SDS011;11089;49.852;19.700;2023-04-25T00:22:39;9.75;;;6.57;;
21848;SDS011;11089;49.852;19.700;2023-04-25T00:25:40;7.97;;;6.00;;
21848;SDS011;11089;49.852;19.700;2023-04-25T00:28:41;10.68;;;7.10;;
21848;SDS011;11089;49.852;19.700;2023-04-25T00:31:42;10.13;;;7.15;;
21848;SDS011;11089;49.852;19.700;2023-04-25T00:34:43;11.38;;;7.15;;
21848;SDS011;11089;49.852;19.700;2023-04-25T00:37:44;8.77;;;6.80;;
21848;SDS011;11089;49.852;19.700;2023-04-25T00:40:45;12.23;;;6.88;;
21848;SDS011;11089;49.852;19.700;2023-04-25T00:43:46;11.30;;;6.78;;
21848;SDS011;11089;49.852;19.700;2023-04-25T00:46:48;10.55;;;7.43;;
21848;SDS011;11089;49.852;19.700;2023-04-25T00:49:50;11.38;;;7.30;;
21848;SDS011;11089;49.852;19.700;2023-04-25T00:52:53;11.95;;;7.05;;
21848;SDS011;11089;49.852;19.700;2023-04-25T00:55:54;10.32;;;6.63;;
21848;SDS011;11089;49.852;19.700;2023-04-25T00:58:56;11.65;;;7.00;;
21848;SDS011;11089;49.852;19.700;2023-04-25T01:01:57;10.75;;;6.85;;
21848;SDS011;11089;49.852;19.700;2023-04-25T01:04:58;10.10;;;6.85;;
21848;SDS011;11089;49.852;19.700;2023-04-25T01:08:00;11.23;;;7.97;;
21848;SDS011;11089;49.852;19.700;2023-04-25T01:11:01;12.05;;;7.45;;
21848;SDS011;11089;49.852;19.700;2023-04-25T01:14:02;9.95;;;6.95;;
21848;SDS011;11089;49.852;19.700;2023-04-25T01:17:03;10.68;;;7.05;;
21848;SDS011;11089;49.852;19.700;2023-04-25T01:20:04;11.32;;;7.13;;
21848;SDS011;11089;49.852;19.700;2023-04-25T01:23:07;13.32;;;7.05;;
21848;SDS011;11089;49.852;19.700;2023-04-25T01:26:09;9.30;;;6.22;;
21848;SDS011;11089;49.852;19.700;2023-04-25T01:29:11;11.13;;;6.68;;
21848;SDS011;11089;49.852;19.700;2023-04-25T01:32:12;14.10;;;7.53;;
21848;SDS011;11089;49.852;19.700;2023-04-25T01:35:14;10.50;;;7.53;;
21848;SDS011;11089;49.852;19.700;2023-04-25T01:38:15;14.20;;;8.48;;
21848;SDS011;11089;49.852;19.700;2023-04-25T01:41:16;14.50;;;8.02;;
21848;SDS011;11089;49.852;19.700;2023-04-25T01:44:18;11.65;;;7.30;;
21848;SDS011;11089;49.852;19.700;2023-04-25T01:47:19;14.80;;;7.97;;
21848;SDS011;11089;49.852;19.700;2023-04-25T01:50:19;12.38;;;7.30;;
21848;SDS011;11089;49.852;19.700;2023-04-25T01:53:21;11.98;;;8.10;;
21848;SDS011;11089;49.852;19.700;2023-04-25T01:56:22;15.07;;;8.10;;
21848;SDS011;11089;49.852;19.700;2023-04-25T01:59:23;14.65;;;8.88;;
21848;SDS011;11089;49.852;19.700;2023-04-25T02:02:25;13.15;;;7.85;;
21848;SDS011;11089;49.852;19.700;2023-04-25T02:05:26;14.57;;;8.65;;
21848;SDS011;11089;49.852;19.700;2023-04-25T02:08:27;14.35;;;9.05;;
21848;SDS011;11089;49.852;19.700;2023-04-25T02:11:28;15.68;;;9.48;;
21848;SDS011;11089;49.852;19.700;2023-04-25T02:14:29;16.23;;;9.05;;
21848;SDS011;11089;49.852;19.700;2023-04-25T02:17:30;15.68;;;9.60;;
21848;SDS011;11089;49.852;19.700;2023-04-25T02:20:32;16.60;;;10.05;;
21848;SDS011;11089;49.852;19.700;2023-04-25T02:23:33;20.45;;;11.07;;
21848;SDS011;11089;49.852;19.700;2023-04-25T02:26:34;20.40;;;11.73;;
21848;SDS011;11089;49.852;19.700;2023-04-25T02:29:35;18.02;;;10.95;;
21848;SDS011;11089;49.852;19.700;2023-04-25T02:32:36;19.65;;;10.93;;
21848;SDS011;11089;49.852;19.700;2023-04-25T02:35:37;15.55;;;9.55;;
21848;SDS011;11089;49.852;19.700;2023-04-25T02:38:38;23.10;;;11.60;;
21848;SDS011;11089;49.852;19.700;2023-04-25T02:41:39;19.90;;;11.20;;
21848;SDS011;11089;49.852;19.700;2023-04-25T02:44:40;21.58;;;12.35;;
21848;SDS011;11089;49.852;19.700;2023-04-25T02:47:41;18.52;;;11.45;;
21848;SDS011;11089;49.852;19.700;2023-04-25T02:50:42;18.67;;;11.60;;
21848;SDS011;11089;49.852;19.700;2023-04-25T02:53:43;17.10;;;10.95;;
21848;SDS011;11089;49.852;19.700;2023-04-25T02:56:44;18.10;;;10.82;;
21848;SDS011;11089;49.852;19.700;2023-04-25T02:59:45;15.25;;;9.98;;
21848;SDS011;11089;49.852;19.700;2023-04-25T03:02:46;18.02;;;11.00;;
21848;SDS011;11089;49.852;19.700;2023-04-25T03:05:48;16.00;;;10.65;;
21848;SDS011;11089;49.852;19.700;2023-04-25T03:08:50;18.58;;;9.15;;
21848;SDS011;11089;49.852;19.700;2023-04-25T03:11:51;14.95;;;8.73;;
21848;SDS011;11089;49.852;19.700;2023-04-25T03:14:52;13.73;;;8.95;;
21848;SDS011;11089;49.852;19.700;2023-04-25T03:17:53;16.02;;;9.10;;
21848;SDS011;11089;49.852;19.700;2023-04-25T03:20:54;13.80;;;9.27;;
21848;SDS011;11089;49.852;19.700;2023-04-25T03:23:55;12.98;;;9.07;;
21848;SDS011;11089;49.852;19.700;2023-04-25T03:26:56;15.45;;;9.63;;
21848;SDS011;11089;49.852;19.700;2023-04-25T03:29:57;11.07;;;8.20;;
21848;SDS011;11089;49.852;19.700;2023-04-25T03:32:58;15.15;;;9.45;;
21848;SDS011;11089;49.852;19.700;2023-04-25T03:35:59;14.02;;;8.60;;
21848;SDS011;11089;49.852;19.700;2023-04-25T03:39:00;12.48;;;8.90;;
21848;SDS011;11089;49.852;19.700;2023-04-25T03:42:01;13.50;;;8.93;;
21848;SDS011;11089;49.852;19.700;2023-04-25T03:45:03;12.43;;;8.75;;
21848;SDS011;11089;49.852;19.700;2023-04-25T03:48:05;13.25;;;8.85;;
21848;SDS011;11089;49.852;19.700;2023-04-25T03:51:05;12.65;;;9.27;;
21848;SDS011;11089;49.852;19.700;2023-04-25T03:54:06;12.57;;;8.73;;
21848;SDS011;11089;49.852;19.700;2023-04-25T03:57:07;15.38;;;9.25;;
21848;SDS011;11089;49.852;19.700;2023-04-25T04:00:08;14.82;;;9.77;;
21848;SDS011;11089;49.852;19.700;2023-04-25T04:03:10;14.27;;;8.85;;
21848;SDS011;11089;49.852;19.700;2023-04-25T04:06:11;13.93;;;9.27;;
21848;SDS011;11089;49.852;19.700;2023-04-25T04:09:13;12.95;;;8.90;;
21848;SDS011;11089;49.852;19.700;2023-04-25T04:12:14;10.85;;;7.72;;
21848;SDS011;11089;49.852;19.700;2023-04-25T04:15:15;13.40;;;8.02;;
21848;SDS011;11089;49.852;19.700;2023-04-25T04:18:16;10.15;;;7.47;;
21848;SDS011;11089;49.852;19.700;2023-04-25T04:21:17;12.25;;;7.32;;
21848;SDS011;11089;49.852;19.700;2023-04-25T04:24:18;14.20;;;7.65;;
21848;SDS011;11089;49.852;19.700;2023-04-25T04:27:19;13.20;;;8.52;;
21848;SDS011;11089;49.852;19.700;2023-04-25T04:30:23;10.30;;;7.38;;
21848;SDS011;11089;49.852;19.700;2023-04-25T04:33:24;11.70;;;8.15;;
21848;SDS011;11089;49.852;19.700;2023-04-25T04:36:25;11.75;;;7.97;;
21848;SDS011;11089;49.852;19.700;2023-04-25T04:39:26;11.50;;;7.43;;
21848;SDS011;11089;49.852;19.700;2023-04-25T04:42:27;10.60;;;7.20;;
21848;SDS011;11089;49.852;19.700;2023-04-25T04:45:29;11.23;;;7.40;;
21848;SDS011;11089;49.852;19.700;2023-04-25T04:48:33;11.02;;;7.57;;
21848;SDS011;11089;49.852;19.700;2023-04-25T04:51:37;12.60;;;7.00;;
21848;SDS011;11089;49.852;19.700;2023-04-25T04:54:38;10.30;;;6.93;;
21848;SDS011;11089;49.852;19.700;2023-04-25T04:57:39;11.82;;;7.90;;
21848;SDS011;11089;49.852;19.700;2023-04-25T05:00:40;13.57;;;8.07;;
21848;SDS011;11089;49.852;19.700;2023-04-25T05:03:41;10.70;;;7.63;;
21848;SDS011;11089;49.852;19.700;2023-04-25T05:06:42;10.38;;;7.05;;
21848;SDS011;11089;49.852;19.700;2023-04-25T05:09:44;9.80;;;7.00;;
21848;SDS011;11089;49.852;19.700;2023-04-25T05:12:45;10.30;;;7.53;;
21848;SDS011;11089;49.852;19.700;2023-04-25T05:15:46;13.00;;;8.77;;
21848;SDS011;11089;49.852;19.700;2023-04-25T05:18:47;9.75;;;7.30;;
21848;SDS011;11089;49.852;19.700;2023-04-25T05:21:48;9.73;;;7.28;;
21848;SDS011;11089;49.852;19.700;2023-04-25T05:24:49;10.32;;;7.20;;
21848;SDS011;11089;49.852;19.700;2023-04-25T05:27:51;11.65;;;7.57;;
21848;SDS011;11089;49.852;19.700;2023-04-25T05:30:52;9.70;;;7.40;;
21848;SDS011;11089;49.852;19.700;2023-04-25T05:33:54;11.98;;;7.95;;
21848;SDS011;11089;49.852;19.700;2023-04-25T05:36:55;12.60;;;8.18;;
21848;SDS011;11089;49.852;19.700;2023-04-25T05:39:56;9.45;;;7.32;;
21848;SDS011;11089;49.852;19.700;2023-04-25T05:42:57;11.07;;;8.00;;
21848;SDS011;11089;49.852;19.700;2023-04-25T05:45:57;11.85;;;7.40;;
21848;SDS011;11089;49.852;19.700;2023-04-25T05:48:59;10.02;;;7.90;;
21848;SDS011;11089;49.852;19.700;2023-04-25T05:52:00;15.77;;;9.60;;
21848;SDS011;11089;49.852;19.700;2023-04-25T05:55:01;12.70;;;8.15;;
21848;SDS011;11089;49.852;19.700;2023-04-25T05:58:02;11.82;;;8.15;;
21848;SDS011;11089;49.852;19.700;2023-04-25T06:01:03;9.63;;;7.25;;
21848;SDS011;11089;49.852;19.700;2023-04-25T06:04:04;10.57;;;6.55;;
21848;SDS011;11089;49.852;19.700;2023-04-25T06:07:05;8.80;;;6.53;;
21848;SDS011;11089;49.852;19.700;2023-04-25T06:10:06;8.52;;;6.00;;
21848;SDS011;11089;49.852;19.700;2023-04-25T06:13:07;9.95;;;6.63;;
21848;SDS011;11089;49.852;19.700;2023-04-25T06:16:08;9.95;;;7.03;;
21848;SDS011;11089;49.852;19.700;2023-04-25T06:19:09;10.05;;;6.63;;
21848;SDS011;11089;49.852;19.700;2023-04-25T06:22:10;7.57;;;5.97;;
21848;SDS011;11089;49.852;19.700;2023-04-25T06:25:11;7.93;;;6.13;;
21848;SDS011;11089;49.852;19.700;2023-04-25T06:28:12;12.98;;;7.63;;
21848;SDS011;11089;49.852;19.700;2023-04-25T06:31:13;14.13;;;8.63;;
21848;SDS011;11089;49.852;19.700;2023-04-25T06:34:15;9.68;;;6.28;;
21848;SDS011;11089;49.852;19.700;2023-04-25T06:37:16;15.38;;;7.78;;
21848;SDS011;11089;49.852;19.700;2023-04-25T06:40:17;15.38;;;9.40;;
21848;SDS011;11089;49.852;19.700;2023-04-25T06:43:18;13.32;;;8.85;;
21848;SDS011;11089;49.852;19.700;2023-04-25T06:46:19;14.25;;;8.13;;
21848;SDS011;11089;49.852;19.700;2023-04-25T06:49:20;13.02;;;7.55;;
21848;SDS011;11089;49.852;19.700;2023-04-25T06:52:21;10.75;;;6.80;;
21848;SDS011;11089;49.852;19.700;2023-04-25T06:55:21;13.82;;;7.85;;
21848;SDS011;11089;49.852;19.700;2023-04-25T06:58:22;11.00;;;6.47;;
21848;SDS011;11089;49.852;19.700;2023-04-25T07:01:23;9.52;;;6.75;;
21848;SDS011;11089;49.852;19.700;2023-04-25T07:04:24;10.95;;;6.30;;
21848;SDS011;11089;49.852;19.700;2023-04-25T07:07:26;11.70;;;6.68;;
21848;SDS011;11089;49.852;19.700;2023-04-25T07:10:27;11.00;;;6.53;;
21848;SDS011;11089;49.852;19.700;2023-04-25T07:13:28;10.77;;;7.18;;
21848;SDS011;11089;49.852;19.700;2023-04-25T07:16:30;12.07;;;6.80;;
21848;SDS011;11089;49.852;19.700;2023-04-25T07:19:31;8.88;;;6.65;;
21848;SDS011;11089;49.852;19.700;2023-04-25T07:22:32;11.32;;;7.35;;
21848;SDS011;11089;49.852;19.700;2023-04-25T07:25:33;11.18;;;8.15;;
21848;SDS011;11089;49.852;19.700;2023-04-25T07:28:35;10.80;;;7.50;;
21848;SDS011;11089;49.852;19.700;2023-04-25T07:31:36;16.63;;;9.82;;
21848;SDS011;11089;49.852;19.700;2023-04-25T07:34:37;15.68;;;8.65;;
21848;SDS011;11089;49.852;19.700;2023-04-25T07:37:38;9.85;;;7.32;;
21848;SDS011;11089;49.852;19.700;2023-04-25T07:40:39;9.23;;;6.97;;
21848;SDS011;11089;49.852;19.700;2023-04-25T07:43:40;13.63;;;8.15;;
21848;SDS011;11089;49.852;19.700;2023-04-25T07:46:41;11.13;;;7.95;;
21848;SDS011;11089;49.852;19.700;2023-04-25T07:49:42;16.45;;;9.10;;
21848;SDS011;11089;49.852;19.700;2023-04-25T07:52:43;13.35;;;8.30;;
21848;SDS011;11089;49.852;19.700;2023-04-25T07:55:44;11.63;;;8.10;;
21848;SDS011;11089;49.852;19.700;2023-04-25T07:58:45;8.98;;;7.10;;
21848;SDS011;11089;49.852;19.700;2023-04-25T08:01:46;9.80;;;6.60;;
21848;SDS011;11089;49.852;19.700;2023-04-25T08:04:47;11.63;;;7.57;;
21848;SDS011;11089;49.852;19.700;2023-04-25T08:07:49;11.50;;;8.25;;
21848;SDS011;11089;49.852;19.700;2023-04-25T08:10:50;12.10;;;7.93;;
21848;SDS011;11089;49.852;19.700;2023-04-25T08:13:51;12.32;;;8.25;;
21848;SDS011;11089;49.852;19.700;2023-04-25T08:16:52;15.38;;;9.02;;
21848;SDS011;11089;49.852;19.700;2023-04-25T08:19:53;12.00;;;8.43;;
21848;SDS011;11089;49.852;19.700;2023-04-25T08:22:55;12.13;;;9.60;;
21848;SDS011;11089;49.852;19.700;2023-04-25T08:25:56;16.63;;;9.70;;
21848;SDS011;11089;49.852;19.700;2023-04-25T08:28:57;19.15;;;10.07;;
21848;SDS011;11089;49.852;19.700;2023-04-25T08:31:58;17.25;;;10.80;;
21848;SDS011;11089;49.852;19.700;2023-04-25T08:34:59;19.45;;;11.15;;
21848;SDS011;11089;49.852;19.700;2023-04-25T08:38:00;18.52;;;11.75;;
21848;SDS011;11089;49.852;19.700;2023-04-25T08:41:01;15.65;;;10.45;;
21848;SDS011;11089;49.852;19.700;2023-04-25T08:44:02;14.43;;;10.15;;
21848;SDS011;11089;49.852;19.700;2023-04-25T08:47:05;15.10;;;10.25;;
21848;SDS011;11089;49.852;19.700;2023-04-25T08:50:06;13.32;;;9.90;;
21848;SDS011;11089;49.852;19.700;2023-04-25T08:53:08;15.93;;;10.48;;
21848;SDS011;11089;49.852;19.700;2023-04-25T08:56:14;16.23;;;10.73;;
21848;SDS011;11089;49.852;19.700;2023-04-25T08:59:22;18.83;;;12.57;;
21848;SDS011;11089;49.852;19.700;2023-04-25T09:02:24;20.38;;;11.57;;
21848;SDS011;11089;49.852;19.700;2023-04-25T09:05:25;12.60;;;8.80;;
21848;SDS011;11089;49.852;19.700;2023-04-25T09:08:26;14.45;;;7.85;;
21848;SDS011;11089;49.852;19.700;2023-04-25T09:11:27;11.50;;;8.23;;
21848;SDS011;11089;49.852;19.700;2023-04-25T09:14:28;13.95;;;7.35;;
21848;SDS011;11089;49.852;19.700;2023-04-25T09:17:29;12.50;;;7.85;;
21848;SDS011;11089;49.852;19.700;2023-04-25T09:20:30;14.40;;;7.57;;
21848;SDS011;11089;49.852;19.700;2023-04-25T09:23:31;8.38;;;5.53;;
21848;SDS011;11089;49.852;19.700;2023-04-25T09:26:40;9.88;;;5.75;;
21848;SDS011;11089;49.852;19.700;2023-04-25T09:29:41;9.10;;;6.40;;
21848;SDS011;11089;49.852;19.700;2023-04-25T09:32:43;12.20;;;6.00;;
21848;SDS011;11089;49.852;19.700;2023-04-25T09:35:44;9.60;;;5.88;;
21848;SDS011;11089;49.852;19.700;2023-04-25T09:38:46;7.80;;;5.07;;
21848;SDS011;11089;49.852;19.700;2023-04-25T09:41:47;6.50;;;4.07;;
21848;SDS011;11089;49.852;19.700;2023-04-25T09:44:54;6.65;;;4.90;;
21848;SDS011;11089;49.852;19.700;2023-04-25T09:47:56;8.20;;;4.65;;
21848;SDS011;11089;49.852;19.700;2023-04-25T09:54:14;6.50;;;4.38;;
21848;SDS011;11089;49.852;19.700;2023-04-25T09:57:19;8.55;;;4.40;;
21848;SDS011;11089;49.852;19.700;2023-04-25T10:00:24;6.93;;;4.13;;
21848;SDS011;11089;49.852;19.700;2023-04-25T10:03:25;11.38;;;4.80;;
21848;SDS011;11089;49.852;19.700;2023-04-25T10:06:29;7.22;;;4.47;;
21848;SDS011;11089;49.852;19.700;2023-04-25T10:09:32;7.93;;;5.07;;
21848;SDS011;11089;49.852;19.700;2023-04-25T10:12:36;7.28;;;4.75;;
21848;SDS011;11089;49.852;19.700;2023-04-25T10:15:39;8.80;;;5.18;;
21848;SDS011;11089;49.852;19.700;2023-04-25T10:18:41;9.25;;;5.90;;
21848;SDS011;11089;49.852;19.700;2023-04-25T10:21:44;10.18;;;5.03;;
21848;SDS011;11089;49.852;19.700;2023-04-25T10:24:50;5.88;;;4.25;;
21848;SDS011;11089;49.852;19.700;2023-04-25T10:27:52;5.85;;;4.75;;
21848;SDS011;11089;49.852;19.700;2023-04-25T10:31:03;7.25;;;4.80;;
21848;SDS011;11089;49.852;19.700;2023-04-25T10:34:07;7.43;;;5.15;;
21848;SDS011;11089;49.852;19.700;2023-04-25T10:37:08;6.97;;;4.78;;
21848;SDS011;11089;49.852;19.700;2023-04-25T10:40:11;12.38;;;8.52;;
21848;SDS011;11089;49.852;19.700;2023-04-25T10:46:41;9.18;;;6.70;;
21848;SDS011;11089;49.852;19.700;2023-04-25T10:49:44;10.35;;;5.22;;
21848;SDS011;11089;49.852;19.700;2023-04-25T10:52:45;14.10;;;9.23;;
21848;SDS011;11089;49.852;19.700;2023-04-25T10:55:49;9.85;;;7.78;;
21848;SDS011;11089;49.852;19.700;2023-04-25T10:58:51;10.32;;;6.97;;
21848;SDS011;11089;49.852;19.700;2023-04-25T11:02:09;14.45;;;9.40;;
21848;SDS011;11089;49.852;19.700;2023-04-25T11:05:17;16.40;;;10.00;;
21848;SDS011;11089;49.852;19.700;2023-04-25T11:08:37;10.90;;;7.18;;
21848;SDS011;11089;49.852;19.700;2023-04-25T11:11:53;20.23;;;10.02;;
21848;SDS011;11089;49.852;19.700;2023-04-25T11:15:13;14.90;;;8.13;;
21848;SDS011;11089;49.852;19.700;2023-04-25T11:18:17;16.55;;;8.10;;
21848;SDS011;11089;49.852;19.700;2023-04-25T11:21:19;14.38;;;7.25;;
21848;SDS011;11089;49.852;19.700;2023-04-25T11:24:24;15.75;;;9.93;;
21848;SDS011;11089;49.852;19.700;2023-04-25T11:27:27;14.18;;;8.27;;
21848;SDS011;11089;49.852;19.700;2023-04-25T11:30:28;12.05;;;7.68;;
21848;SDS011;11089;49.852;19.700;2023-04-25T11:33:30;12.65;;;8.55;;
21848;SDS011;11089;49.852;19.700;2023-04-25T11:36:31;15.27;;;10.15;;
21848;SDS011;11089;49.852;19.700;2023-04-25T11:39:32;12.18;;;7.90;;
21848;SDS011;11089;49.852;19.700;2023-04-25T11:42:33;11.70;;;7.65;;
21848;SDS011;11089;49.852;19.700;2023-04-25T11:45:36;12.73;;;8.80;;
21848;SDS011;11089;49.852;19.700;2023-04-25T11:48:38;12.70;;;7.50;;
21848;SDS011;11089;49.852;19.700;2023-04-25T11:51:45;10.30;;;6.97;;
21848;SDS011;11089;49.852;19.700;2023-04-25T11:54:47;10.35;;;7.35;;
21848;SDS011;11089;49.852;19.700;2023-04-25T11:57:48;12.43;;;7.82;;
21848;SDS011;11089;49.852;19.700;2023-04-25T12:00:53;12.38;;;7.95;;
21848;SDS011;11089;49.852;19.700;2023-04-25T12:03:54;14.05;;;8.45;;
21848;SDS011;11089;49.852;19.700;2023-04-25T12:06:55;11.38;;;8.10;;
21848;SDS011;11089;49.852;19.700;2023-04-25T12:09:56;10.35;;;8.13;;
21848;SDS011;11089;49.852;19.700;2023-04-25T12:12:57;9.98;;;7.55;;
21848;SDS011;11089;49.852;19.700;2023-04-25T12:15:58;12.57;;;8.63;;
21848;SDS011;11089;49.852;19.700;2023-04-25T12:19:00;14.75;;;8.38;;
21848;SDS011;11089;49.852;19.700;2023-04-25T12:22:03;13.50;;;8.95;;
21848;SDS011;11089;49.852;19.700;2023-04-25T12:28:45;15.48;;;8.63;;
21848;SDS011;11089;49.852;19.700;2023-04-25T12:31:47;17.55;;;9.23;;
21848;SDS011;11089;49.852;19.700;2023-04-25T12:34:50;13.80;;;9.63;;
21848;SDS011;11089;49.852;19.700;2023-04-25T12:37:51;14.57;;;9.40;;
21848;SDS011;11089;49.852;19.700;2023-04-25T12:40:52;16.85;;;10.30;;
21848;SDS011;11089;49.852;19.700;2023-04-25T12:43:54;14.63;;;10.55;;
21848;SDS011;11089;49.852;19.700;2023-04-25T12:46:55;14.40;;;9.27;;
21848;SDS011;11089;49.852;19.700;2023-04-25T12:49:56;18.83;;;10.65;;
21848;SDS011;11089;49.852;19.700;2023-04-25T12:52:57;13.85;;;9.43;;
21848;SDS011;11089;49.852;19.700;2023-04-25T12:55:58;15.48;;;9.50;;
21848;SDS011;11089;49.852;19.700;2023-04-25T12:58:59;19.15;;;10.85;;
21848;SDS011;11089;49.852;19.700;2023-04-25T13:02:00;14.80;;;8.27;;
21848;SDS011;11089;49.852;19.700;2023-04-25T13:05:01;26.25;;;13.63;;
21848;SDS011;11089;49.852;19.700;2023-04-25T13:08:02;17.00;;;10.43;;
21848;SDS011;11089;49.852;19.700;2023-04-25T13:11:03;14.40;;;7.47;;
21848;SDS011;11089;49.852;19.700;2023-04-25T13:14:04;10.25;;;7.50;;
21848;SDS011;11089;49.852;19.700;2023-04-25T13:17:05;8.10;;;6.25;;
21848;SDS011;11089;49.852;19.700;2023-04-25T13:20:06;7.80;;;6.10;;
21848;SDS011;11089;49.852;19.700;2023-04-25T13:23:09;15.70;;;8.85;;
21848;SDS011;11089;49.852;19.700;2023-04-25T13:26:10;11.43;;;7.47;;
21848;SDS011;11089;49.852;19.700;2023-04-25T13:29:11;9.63;;;6.95;;
21848;SDS011;11089;49.852;19.700;2023-04-25T13:32:12;11.68;;;7.90;;
21848;SDS011;11089;49.852;19.700;2023-04-25T13:35:13;15.30;;;9.35;;
21848;SDS011;11089;49.852;19.700;2023-04-25T13:38:15;12.95;;;8.40;;
21848;SDS011;11089;49.852;19.700;2023-04-25T13:41:16;10.07;;;6.80;;
21848;SDS011;11089;49.852;19.700;2023-04-25T13:44:18;13.80;;;9.75;;
21848;SDS011;11089;49.852;19.700;2023-04-25T13:47:19;13.68;;;9.02;;
21848;SDS011;11089;49.852;19.700;2023-04-25T13:50:20;9.35;;;6.50;;
21848;SDS011;11089;49.852;19.700;2023-04-25T13:53:22;8.73;;;6.05;;
21848;SDS011;11089;49.852;19.700;2023-04-25T13:56:23;9.95;;;6.75;;
21848;SDS011;11089;49.852;19.700;2023-04-25T13:59:24;15.30;;;10.68;;
21848;SDS011;11089;49.852;19.700;2023-04-25T14:02:28;18.27;;;12.48;;
21848;SDS011;11089;49.852;19.700;2023-04-25T14:05:29;13.02;;;7.93;;
21848;SDS011;11089;49.852;19.700;2023-04-25T14:08:31;8.15;;;5.43;;
21848;SDS011;11089;49.852;19.700;2023-04-25T14:11:32;10.52;;;6.95;;
21848;SDS011;11089;49.852;19.700;2023-04-25T14:14:32;11.13;;;6.30;;
21848;SDS011;11089;49.852;19.700;2023-04-25T14:17:33;17.10;;;9.30;;
21848;SDS011;11089;49.852;19.700;2023-04-25T14:20:34;19.75;;;8.48;;
21848;SDS011;11089;49.852;19.700;2023-04-25T14:23:35;10.32;;;5.60;;
21848;SDS011;11089;49.852;19.700;2023-04-25T14:26:36;10.57;;;6.10;;
21848;SDS011;11089;49.852;19.700;2023-04-25T14:29:37;7.80;;;4.85;;
21848;SDS011;11089;49.852;19.700;2023-04-25T14:32:38;5.85;;;4.53;;
21848;SDS011;11089;49.852;19.700;2023-04-25T14:35:39;8.25;;;5.13;;
21848;SDS011;11089;49.852;19.700;2023-04-25T14:38:40;8.60;;;5.10;;
21848;SDS011;11089;49.852;19.700;2023-04-25T14:41:41;8.02;;;5.15;;
21848;SDS011;11089;49.852;19.700;2023-04-25T14:44:42;10.43;;;5.60;;
21848;SDS011;11089;49.852;19.700;2023-04-25T14:47:43;9.02;;;5.40;;
21848;SDS011;11089;49.852;19.700;2023-04-25T14:50:45;6.93;;;4.97;;
21848;SDS011;11089;49.852;19.700;2023-04-25T14:53:46;7.93;;;5.20;;
21848;SDS011;11089;49.852;19.700;2023-04-25T14:56:47;10.77;;;6.22;;
21848;SDS011;11089;49.852;19.700;2023-04-25T14:59:48;14.63;;;7.05;;
21848;SDS011;11089;49.852;19.700;2023-04-25T15:02:49;10.43;;;5.85;;
21848;SDS011;11089;49.852;19.700;2023-04-25T15:05:50;8.50;;;4.70;;
21848;SDS011;11089;49.852;19.700;2023-04-25T15:08:51;6.68;;;4.35;;
21848;SDS011;11089;49.852;19.700;2023-04-25T15:11:52;7.60;;;4.75;;
21848;SDS011;11089;49.852;19.700;2023-04-25T15:14:52;10.27;;;4.82;;
21848;SDS011;11089;49.852;19.700;2023-04-25T15:17:54;8.43;;;4.65;;
21848;SDS011;11089;49.852;19.700;2023-04-25T15:20:56;11.27;;;4.97;;
21848;SDS011;11089;49.852;19.700;2023-04-25T15:23:57;11.23;;;6.25;;
21848;SDS011;11089;49.852;19.700;2023-04-25T15:26:58;11.35;;;4.95;;
21848;SDS011;11089;49.852;19.700;2023-04-25T15:29:59;6.88;;;4.43;;
21848;SDS011;11089;49.852;19.700;2023-04-25T15:33:00;11.60;;;5.28;;
21848;SDS011;11089;49.852;19.700;2023-04-25T15:36:01;6.38;;;4.55;;
21848;SDS011;11089;49.852;19.700;2023-04-25T15:39:03;7.55;;;4.30;;
21848;SDS011;11089;49.852;19.700;2023-04-25T15:42:04;8.60;;;4.55;;
21848;SDS011;11089;49.852;19.700;2023-04-25T15:45:06;13.07;;;4.82;;
21848;SDS011;11089;49.852;19.700;2023-04-25T15:48:08;9.65;;;4.80;;
21848;SDS011;11089;49.852;19.700;2023-04-25T15:51:10;7.40;;;4.20;;
21848;SDS011;11089;49.852;19.700;2023-04-25T15:54:11;7.15;;;4.75;;
21848;SDS011;11089;49.852;19.700;2023-04-25T15:57:12;10.75;;;5.72;;
21848;SDS011;11089;49.852;19.700;2023-04-25T16:00:13;11.93;;;6.30;;
21848;SDS011;11089;49.852;19.700;2023-04-25T16:03:16;10.65;;;5.10;;
21848;SDS011;11089;49.852;19.700;2023-04-25T16:06:17;11.68;;;6.35;;
21848;SDS011;11089;49.852;19.700;2023-04-25T16:09:18;9.35;;;6.05;;
21848;SDS011;11089;49.852;19.700;2023-04-25T16:12:19;9.52;;;5.20;;
21848;SDS011;11089;49.852;19.700;2023-04-25T16:15:20;7.47;;;4.40;;
21848;SDS011;11089;49.852;19.700;2023-04-25T16:18:21;8.80;;;4.63;;
21848;SDS011;11089;49.852;19.700;2023-04-25T16:21:22;8.02;;;5.03;;
21848;SDS011;11089;49.852;19.700;2023-04-25T16:24:23;10.90;;;5.18;;
21848;SDS011;11089;49.852;19.700;2023-04-25T16:27:24;10.02;;;5.80;;
21848;SDS011;11089;49.852;19.700;2023-04-25T16:30:25;8.75;;;5.05;;
21848;SDS011;11089;49.852;19.700;2023-04-25T16:33:26;9.23;;;5.43;;
21848;SDS011;11089;49.852;19.700;2023-04-25T16:36:27;10.25;;;5.45;;
21848;SDS011;11089;49.852;19.700;2023-04-25T16:39:28;10.00;;;5.30;;
21848;SDS011;11089;49.852;19.700;2023-04-25T16:42:29;6.50;;;4.63;;
21848;SDS011;11089;49.852;19.700;2023-04-25T16:45:29;7.80;;;5.15;;
21848;SDS011;11089;49.852;19.700;2023-04-25T16:48:31;8.02;;;4.97;;
21848;SDS011;11089;49.852;19.700;2023-04-25T16:51:32;9.48;;;5.05;;
21848;SDS011;11089;49.852;19.700;2023-04-25T16:54:33;7.95;;;5.18;;
21848;SDS011;11089;49.852;19.700;2023-04-25T16:57:34;7.72;;;5.10;;
21848;SDS011;11089;49.852;19.700;2023-04-25T17:00:37;8.50;;;4.68;;
21848;SDS011;11089;49.852;19.700;2023-04-25T17:03:39;6.85;;;4.50;;
21848;SDS011;11089;49.852;19.700;2023-04-25T17:06:40;9.57;;;4.72;;
21848;SDS011;11089;49.852;19.700;2023-04-25T17:09:41;7.70;;;4.63;;
21848;SDS011;11089;49.852;19.700;2023-04-25T17:12:42;7.05;;;5.13;;
21848;SDS011;11089;49.852;19.700;2023-04-25T17:15:44;8.15;;;4.82;;
21848;SDS011;11089;49.852;19.700;2023-04-25T17:18:45;9.15;;;5.15;;
21848;SDS011;11089;49.852;19.700;2023-04-25T17:21:46;8.85;;;5.05;;
21848;SDS011;11089;49.852;19.700;2023-04-25T17:24:46;6.78;;;4.57;;
21848;SDS011;11089;49.852;19.700;2023-04-25T17:27:48;9.27;;;4.95;;
21848;SDS011;11089;49.852;19.700;2023-04-25T17:30:49;7.97;;;5.38;;
21848;SDS011;11089;49.852;19.700;2023-04-25T17:33:51;6.15;;;4.60;;
21848;SDS011;11089;49.852;19.700;2023-04-25T17:36:52;6.88;;;5.15;;
21848;SDS011;11089;49.852;19.700;2023-04-25T17:39:53;8.82;;;4.70;;
21848;SDS011;11089;49.852;19.700;2023-04-25T17:42:54;7.03;;;4.97;;
21848;SDS011;11089;49.852;19.700;2023-04-25T17:45:55;10.30;;;5.18;;
21848;SDS011;11089;49.852;19.700;2023-04-25T17:48:56;9.85;;;5.40;;
21848;SDS011;11089;49.852;19.700;2023-04-25T17:51:58;10.68;;;5.40;;
21848;SDS011;11089;49.852;19.700;2023-04-25T17:55:00;10.07;;;5.43;;